Time;durP1;ratioP1;P1;durP2;ratioP2;P2;SDS_P1;SDS_P2;PMS_P1;PMS_P2;Temp;Humidity;BMP_temperature;BMP_pressure;BME280_temperature;BME280_humidity;BME280_pressure;Samples;Min_cycle;Max_cycle;Signal;HPM_P1;HPM_P2
2022/01/01 00:01:41;;;;;;;220.00;156.03;;;;;;;;;;5015015;28;20026;-64
2022/01/01 00:04:07;;;;;;;208.83;147.30;;;;;;;;;;5012342;28;20021;-64
2022/01/01 00:06:33;;;;;;;205.00;145.53;;;;;;;;;;5005471;28;20026;-64
2022/01/01 00:08:59;;;;;;;205.67;141.50;;;;;;;;;;5018385;28;20049;-64
2022/01/01 00:11:26;;;;;;;205.53;142.23;;;;;;;;;;5016332;28;20080;-64
2022/01/01 00:13:52;;;;;;;197.27;139.07;;;;;;;;;;4995341;28;20088;-64
2022/01/01 00:16:18;;;;;;;198.47;138.47;;;;;;;;;;4996965;28;20026;-64
2022/01/01 00:18:44;;;;;;;205.27;142.60;;;;;;;;;;5017059;28;20025;-64
2022/01/01 00:21:10;;;;;;;228.30;146.53;;;;;;;;;;5015442;28;20022;-64
2022/01/01 00:23:36;;;;;;;198.97;136.00;;;;;;;;;;5012570;28;20022;-64
2022/01/01 00:26:02;;;;;;;209.67;136.50;;;;;;;;;;5016391;28;20070;-64
2022/01/01 00:28:28;;;;;;;213.60;143.40;;;;;;;;;;5012853;28;20041;-64
2022/01/01 00:30:54;;;;;;;206.50;137.83;;;;;;;;;;5013543;28;20109;-64
2022/01/01 00:33:20;;;;;;;201.87;140.47;;;;;;;;;;4995818;28;20086;-64
2022/01/01 00:35:46;;;;;;;200.93;138.90;;;;;;;;;;5027548;28;20467;-64
2022/01/01 00:38:12;;;;;;;192.83;134.70;;;;;;;;;;5021638;28;20034;-64
2022/01/01 00:40:38;;;;;;;197.07;137.97;;;;;;;;;;5014520;28;20032;-64
2022/01/01 00:43:04;;;;;;;194.77;136.73;;;;;;;;;;5013034;28;20030;-64
2022/01/01 00:45:30;;;;;;;210.93;139.80;;;;;;;;;;5018418;28;20091;-64
2022/01/01 00:47:56;;;;;;;195.87;137.20;;;;;;;;;;5023845;28;20042;-64
2022/01/01 00:50:22;;;;;;;205.37;140.13;;;;;;;;;;5014175;28;20022;-64
2022/01/01 00:52:50;;;;;;;195.77;135.13;;;;;;;;;;5013218;28;20026;-63
2022/01/01 00:55:16;;;;;;;186.20;131.43;;;;;;;;;;5003088;28;20027;-64
2022/01/01 00:57:42;;;;;;;181.77;126.50;;;;;;;;;;4996120;28;20475;-63
2022/01/01 01:00:09;;;;;;;174.23;128.10;;;;;;;;;;4996914;28;20094;-64
2022/01/01 01:02:35;;;;;;;174.10;124.63;;;;;;;;;;4998891;28;20224;-64
2022/01/01 01:05:01;;;;;;;167.63;121.50;;;;;;;;;;4996393;28;20163;-64
2022/01/01 01:07:27;;;;;;;169.87;121.27;;;;;;;;;;5018258;28;20034;-63
2022/01/01 01:09:53;;;;;;;168.67;121.20;;;;;;;;;;4995914;28;20030;-64
2022/01/01 01:12:24;;;;;;;171.43;120.57;;;;;;;;;;5006223;28;20043;-64
2022/01/01 01:14:51;;;;;;;169.37;118.50;;;;;;;;;;5014684;28;20169;-64
2022/01/01 01:17:41;;;;;;;161.00;115.50;;;;;;;;;;5013724;28;20457;-64
2022/01/01 01:20:08;;;;;;;171.40;120.67;;;;;;;;;;5013304;28;20038;-64
2022/01/01 01:22:34;;;;;;;168.00;118.00;;;;;;;;;;5021086;28;20032;-64
2022/01/01 01:25:00;;;;;;;164.27;117.90;;;;;;;;;;4996010;28;20025;-64
2022/01/01 01:27:28;;;;;;;166.10;119.50;;;;;;;;;;5011610;28;20081;-64
2022/01/01 01:29:57;;;;;;;158.23;114.20;;;;;;;;;;5013814;28;20017;-64
2022/01/01 01:32:23;;;;;;;164.77;115.00;;;;;;;;;;5013391;28;20422;-64
2022/01/01 01:34:49;;;;;;;159.30;113.47;;;;;;;;;;5013634;28;20373;-64
2022/01/01 01:37:15;;;;;;;162.13;113.13;;;;;;;;;;5012846;28;20045;-64
2022/01/01 01:39:41;;;;;;;163.37;116.70;;;;;;;;;;5013052;28;20037;-64
2022/01/01 01:42:07;;;;;;;159.53;114.83;;;;;;;;;;5013143;28;20511;-65
2022/01/01 01:44:37;;;;;;;158.57;113.17;;;;;;;;;;5012813;28;20034;-65
2022/01/01 01:47:09;;;;;;;167.00;116.67;;;;;;;;;;5013473;28;20053;-64
2022/01/01 01:49:35;;;;;;;163.40;116.80;;;;;;;;;;5012647;28;20116;-65
2022/01/01 01:52:02;;;;;;;162.20;111.53;;;;;;;;;;5003877;28;20143;-64
2022/01/01 01:54:28;;;;;;;158.50;112.83;;;;;;;;;;4995255;28;20145;-65
2022/01/01 01:56:54;;;;;;;159.73;116.13;;;;;;;;;;5012342;28;20041;-65
2022/01/01 01:59:23;;;;;;;167.10;114.37;;;;;;;;;;5011921;28;20033;-65
2022/01/01 02:01:50;;;;;;;160.87;113.67;;;;;;;;;;5013212;28;20030;-65
2022/01/01 02:04:16;;;;;;;163.17;113.77;;;;;;;;;;5014434;28;20056;-65
2022/01/01 02:06:43;;;;;;;162.87;116.30;;;;;;;;;;5012988;28;20547;-65
2022/01/01 02:09:10;;;;;;;162.77;115.00;;;;;;;;;;5011522;28;20099;-64
2022/01/01 02:11:37;;;;;;;168.30;116.23;;;;;;;;;;5013260;28;20018;-64
2022/01/01 02:14:09;;;;;;;174.83;115.70;;;;;;;;;;5011638;28;20026;-64
2022/01/01 02:17:08;;;;;;;169.00;114.77;;;;;;;;;;4995386;28;20396;-64
2022/01/01 02:19:28;;;;;;;160.20;112.73;;;;;;;;;;5010350;28;20030;-64
2022/01/01 02:21:56;;;;;;;168.90;113.07;;;;;;;;;;5020252;28;20021;-64
2022/01/01 02:24:23;;;;;;;165.97;111.00;;;;;;;;;;5007465;28;20026;-64
2022/01/01 02:26:49;;;;;;;148.33;107.77;;;;;;;;;;5008176;28;20400;-63
2022/01/01 02:29:15;;;;;;;154.43;110.63;;;;;;;;;;5011915;28;20053;-64
2022/01/01 02:31:41;;;;;;;157.30;107.97;;;;;;;;;;5013141;28;20030;-64
2022/01/01 02:34:08;;;;;;;157.00;108.53;;;;;;;;;;5008746;28;20038;-64
2022/01/01 02:36:42;;;;;;;148.13;104.80;;;;;;;;;;4995275;28;20022;-64
2022/01/01 02:39:12;;;;;;;142.57;101.73;;;;;;;;;;5011742;28;20443;-64
2022/01/01 02:41:38;;;;;;;149.33;101.70;;;;;;;;;;5012958;28;20037;-64
2022/01/01 02:44:06;;;;;;;152.40;102.73;;;;;;;;;;5013053;28;20030;-64
2022/01/01 02:46:32;;;;;;;145.67;103.13;;;;;;;;;;5011955;28;20022;-64
2022/01/01 02:48:58;;;;;;;149.33;104.70;;;;;;;;;;5011550;28;20045;-64
2022/01/01 02:51:24;;;;;;;142.40;101.13;;;;;;;;;;5015663;28;20017;-64
2022/01/01 02:53:50;;;;;;;151.20;102.67;;;;;;;;;;4997970;28;20026;-64
2022/01/01 02:56:16;;;;;;;149.20;104.60;;;;;;;;;;5011984;28;20029;-64
2022/01/01 02:58:42;;;;;;;147.10;100.53;;;;;;;;;;4996271;28;20384;-64
2022/01/01 03:01:09;;;;;;;146.53;101.43;;;;;;;;;;5017448;28;20022;-64
2022/01/01 03:03:35;;;;;;;148.03;102.53;;;;;;;;;;5014236;28;20033;-64
2022/01/01 03:06:01;;;;;;;140.80;99.10;;;;;;;;;;5001420;28;20469;-64
2022/01/01 03:08:27;;;;;;;139.07;98.40;;;;;;;;;;5011488;28;20041;-64
2022/01/01 03:10:53;;;;;;;138.50;97.70;;;;;;;;;;5006421;28;20022;-64
2022/01/01 03:13:19;;;;;;;130.00;93.83;;;;;;;;;;5005590;28;20061;-64
2022/01/01 03:15:45;;;;;;;134.07;94.30;;;;;;;;;;5016116;28;20088;-64
2022/01/01 03:18:11;;;;;;;135.03;93.47;;;;;;;;;;5014466;28;20418;-64
2022/01/01 03:20:38;;;;;;;128.07;88.87;;;;;;;;;;5015848;28;20053;-64
2022/01/01 03:23:04;;;;;;;121.33;86.70;;;;;;;;;;5013991;28;20026;-64
2022/01/01 03:25:30;;;;;;;122.20;85.80;;;;;;;;;;5015886;28;20541;-64
2022/01/01 03:27:57;;;;;;;122.03;84.70;;;;;;;;;;5015087;28;20049;-64
2022/01/01 03:30:23;;;;;;;117.10;81.10;;;;;;;;;;4998297;28;20034;-65
2022/01/01 03:32:49;;;;;;;113.97;78.43;;;;;;;;;;5014795;28;20038;-65
2022/01/01 03:35:15;;;;;;;112.00;79.93;;;;;;;;;;5015950;28;20026;-65
2022/01/01 03:37:41;;;;;;;107.20;76.73;;;;;;;;;;5014871;28;20530;-65
2022/01/01 03:40:07;;;;;;;106.83;73.00;;;;;;;;;;5014347;28;20061;-65
2022/01/01 03:42:33;;;;;;;99.03;70.90;;;;;;;;;;5015126;28;20104;-65
2022/01/01 03:44:59;;;;;;;102.63;71.33;;;;;;;;;;5014433;28;20065;-65
2022/01/01 03:47:25;;;;;;;104.37;71.80;;;;;;;;;;5018049;28;20057;-64
2022/01/01 03:49:51;;;;;;;101.70;70.13;;;;;;;;;;5014556;28;20168;-65
2022/01/01 03:52:18;;;;;;;100.73;69.10;;;;;;;;;;5014380;28;20026;-65
2022/01/01 03:54:44;;;;;;;89.40;63.80;;;;;;;;;;5009446;28;20142;-65
2022/01/01 03:57:10;;;;;;;96.03;65.07;;;;;;;;;;5004535;28;20033;-65
2022/01/01 03:59:36;;;;;;;88.37;61.90;;;;;;;;;;5015336;28;20145;-65
2022/01/01 04:02:03;;;;;;;93.47;64.53;;;;;;;;;;4997528;28;20066;-64
2022/01/01 04:04:29;;;;;;;91.70;63.67;;;;;;;;;;4997090;28;20038;-64
2022/01/01 04:06:55;;;;;;;90.07;63.60;;;;;;;;;;5020160;28;20075;-64
2022/01/01 04:09:21;;;;;;;90.77;62.17;;;;;;;;;;4997783;28;20577;-64
2022/01/01 04:11:47;;;;;;;86.60;62.33;;;;;;;;;;5015057;28;20033;-64
2022/01/01 04:14:15;;;;;;;86.87;60.20;;;;;;;;;;5013284;28;20033;-64
2022/01/01 04:16:42;;;;;;;88.60;60.80;;;;;;;;;;5000186;28;20025;-64
2022/01/01 04:19:08;;;;;;;84.30;60.17;;;;;;;;;;5001792;28;20476;-64
2022/01/01 04:21:34;;;;;;;81.93;58.03;;;;;;;;;;4981006;28;20056;-64
2022/01/01 04:24:02;;;;;;;85.67;61.33;;;;;;;;;;5014459;28;20056;-64
2022/01/01 04:26:28;;;;;;;89.33;61.53;;;;;;;;;;5013548;28;20030;-64
2022/01/01 04:28:54;;;;;;;77.83;54.87;;;;;;;;;;4991649;28;20034;-64
2022/01/01 04:31:20;;;;;;;87.87;63.30;;;;;;;;;;5013714;28;20029;-64
2022/01/01 04:33:46;;;;;;;97.10;66.23;;;;;;;;;;5014513;28;20033;-64
2022/01/01 04:36:13;;;;;;;98.20;67.37;;;;;;;;;;5013292;28;20467;-64
2022/01/01 04:38:44;;;;;;;92.47;68.47;;;;;;;;;;5022799;28;20037;-64
2022/01/01 04:41:14;;;;;;;96.97;68.57;;;;;;;;;;5018768;28;20375;-64
2022/01/01 04:43:40;;;;;;;92.90;66.50;;;;;;;;;;5013117;28;20571;-64
2022/01/01 04:46:07;;;;;;;91.07;64.67;;;;;;;;;;5013344;28;20033;-64
2022/01/01 04:48:37;;;;;;;89.27;64.30;;;;;;;;;;5019303;28;20120;-64
2022/01/01 04:51:05;;;;;;;89.57;61.93;;;;;;;;;;5013526;28;20026;-64
2022/01/01 04:53:31;;;;;;;83.47;60.33;;;;;;;;;;5011347;28;20076;-64
2022/01/01 04:55:59;;;;;;;86.63;59.90;;;;;;;;;;5013516;28;20034;-64
2022/01/01 04:58:25;;;;;;;84.20;58.87;;;;;;;;;;5013848;28;20034;-64
2022/01/01 05:00:51;;;;;;;82.93;57.30;;;;;;;;;;5015574;28;20076;-64
2022/01/01 05:03:17;;;;;;;83.10;57.47;;;;;;;;;;5016919;28;20394;-64
2022/01/01 05:05:43;;;;;;;82.37;59.57;;;;;;;;;;5013187;28;20029;-64
2022/01/01 05:08:09;;;;;;;77.50;55.93;;;;;;;;;;5013059;28;20129;-64
2022/01/01 05:10:35;;;;;;;77.53;57.43;;;;;;;;;;5013398;28;20030;-65
2022/01/01 05:13:01;;;;;;;79.40;55.57;;;;;;;;;;5014027;28;20036;-65
2022/01/01 05:15:28;;;;;;;79.90;57.97;;;;;;;;;;5012636;28;20025;-65
2022/01/01 05:17:53;;;;;;;79.10;55.60;;;;;;;;;;5017295;28;20104;-65
2022/01/01 05:20:20;;;;;;;77.87;56.60;;;;;;;;;;5013201;28;20062;-65
2022/01/01 05:22:46;;;;;;;77.27;55.47;;;;;;;;;;5013104;28;20030;-65
2022/01/01 05:25:12;;;;;;;72.93;52.90;;;;;;;;;;4996717;28;20037;-65
2022/01/01 05:27:38;;;;;;;71.10;53.73;;;;;;;;;;5012344;28;20038;-64
2022/01/01 05:30:05;;;;;;;73.97;52.57;;;;;;;;;;4996823;28;20456;-64
2022/01/01 05:33:04;;;;;;;70.40;50.10;;;;;;;;;;5012867;28;20025;-65
2022/01/01 05:35:30;;;;;;;70.90;50.27;;;;;;;;;;5013852;28;20400;-64
2022/01/01 05:37:56;;;;;;;72.37;50.03;;;;;;;;;;5008550;28;20021;-64
2022/01/01 05:40:23;;;;;;;68.47;48.90;;;;;;;;;;5013546;28;20026;-64
2022/01/01 05:42:49;;;;;;;66.63;50.13;;;;;;;;;;5012754;28;20060;-64
2022/01/01 05:45:16;;;;;;;70.80;49.33;;;;;;;;;;5012242;28;20435;-64
2022/01/01 05:47:42;;;;;;;69.20;50.03;;;;;;;;;;5025292;28;20079;-64
2022/01/01 05:50:08;;;;;;;72.73;50.93;;;;;;;;;;5014180;28;20116;-64
2022/01/01 05:52:34;;;;;;;63.40;45.83;;;;;;;;;;5012450;28;20029;-64
2022/01/01 05:55:00;;;;;;;64.70;45.87;;;;;;;;;;5013078;28;20116;-64
2022/01/01 05:57:26;;;;;;;70.30;47.50;;;;;;;;;;5001404;28;20026;-64
2022/01/01 05:59:52;;;;;;;64.13;46.67;;;;;;;;;;5009725;28;20518;-64
2022/01/01 06:02:18;;;;;;;62.57;46.33;;;;;;;;;;4999533;28;20037;-64
2022/01/01 06:04:44;;;;;;;62.33;44.47;;;;;;;;;;5016978;28;20045;-64
2022/01/01 06:07:10;;;;;;;59.67;44.03;;;;;;;;;;5012835;28;20030;-64
2022/01/01 06:09:37;;;;;;;65.43;45.17;;;;;;;;;;5010699;28;20137;-64
2022/01/01 06:12:03;;;;;;;62.60;44.90;;;;;;;;;;5012095;28;20029;-64
2022/01/01 06:14:29;;;;;;;61.73;46.13;;;;;;;;;;5012335;28;20495;-64
2022/01/01 06:16:55;;;;;;;59.43;44.90;;;;;;;;;;5012415;28;20030;-64
2022/01/01 06:19:21;;;;;;;65.27;47.17;;;;;;;;;;5012692;28;20080;-64
2022/01/01 06:21:47;;;;;;;60.33;44.90;;;;;;;;;;4994559;28;20431;-64
2022/01/01 06:24:13;;;;;;;63.97;46.63;;;;;;;;;;5012815;28;20034;-64
2022/01/01 06:26:39;;;;;;;66.00;47.07;;;;;;;;;;5012507;28;20052;-64
2022/01/01 06:29:05;;;;;;;60.83;44.83;;;;;;;;;;4994967;28;20041;-64
2022/01/01 06:31:31;;;;;;;60.20;45.63;;;;;;;;;;5010419;28;20100;-64
2022/01/01 06:33:57;;;;;;;60.50;45.97;;;;;;;;;;5011936;28;20465;-65
2022/01/01 06:36:23;;;;;;;59.60;43.60;;;;;;;;;;5002952;28;20109;-64
2022/01/01 06:38:49;;;;;;;61.40;43.67;;;;;;;;;;5015469;28;20041;-64
2022/01/01 06:41:17;;;;;;;59.03;43.33;;;;;;;;;;5015216;28;20034;-64
2022/01/01 06:43:44;;;;;;;56.87;42.63;;;;;;;;;;5014152;28;20167;-64
2022/01/01 06:46:10;;;;;;;59.17;42.93;;;;;;;;;;5015432;28;20104;-64
2022/01/01 06:48:36;;;;;;;54.00;40.53;;;;;;;;;;4998415;28;20447;-65
2022/01/01 06:57:13;;;;;;;56.10;41.10;;;;;;;;;;4996093;28;20542;-64
2022/01/01 06:59:39;;;;;;;52.83;40.60;;;;;;;;;;5003508;28;20081;-64
2022/01/01 07:02:05;;;;;;;54.87;41.40;;;;;;;;;;5008237;28;20025;-64
2022/01/01 07:04:31;;;;;;;58.37;41.50;;;;;;;;;;5015226;28;20025;-64
2022/01/01 07:06:57;;;;;;;57.00;40.83;;;;;;;;;;5016159;28;20053;-64
2022/01/01 07:09:23;;;;;;;46.90;37.77;;;;;;;;;;5014662;28;20499;-64
2022/01/01 07:11:50;;;;;;;49.33;36.70;;;;;;;;;;5021656;28;20029;-64
2022/01/01 07:14:21;;;;;;;49.43;36.63;;;;;;;;;;5016988;28;20556;-64
2022/01/01 07:16:47;;;;;;;47.93;37.40;;;;;;;;;;5015962;28;20022;-64
2022/01/01 07:19:13;;;;;;;48.83;38.03;;;;;;;;;;4996527;28;20030;-64
2022/01/01 07:21:38;;;;;;;49.53;38.70;;;;;;;;;;5017627;28;20486;-65
2022/01/01 07:24:05;;;;;;;53.00;40.03;;;;;;;;;;5015629;28;20030;-64
2022/01/01 07:26:31;;;;;;;52.07;39.83;;;;;;;;;;5015716;28;20026;-65
2022/01/01 07:28:57;;;;;;;59.67;43.07;;;;;;;;;;4996807;28;20046;-64
2022/01/01 07:31:23;;;;;;;55.37;43.13;;;;;;;;;;5016192;28;20391;-65
2022/01/01 07:33:49;;;;;;;55.30;44.13;;;;;;;;;;4999665;28;20025;-65
2022/01/01 07:39:18;;;;;;;55.53;43.57;;;;;;;;;;5011476;28;20049;-64
2022/01/01 07:41:44;;;;;;;54.97;43.80;;;;;;;;;;4999821;28;20026;-65
2022/01/01 07:44:11;;;;;;;56.30;42.97;;;;;;;;;;5014095;28;20120;-64
2022/01/01 07:46:37;;;;;;;55.20;43.43;;;;;;;;;;5015318;28;20034;-64
2022/01/01 07:49:03;;;;;;;53.57;41.83;;;;;;;;;;5013455;28;20048;-65
2022/01/01 07:51:29;;;;;;;49.97;40.40;;;;;;;;;;5015078;28;20394;-65
2022/01/01 07:53:55;;;;;;;56.00;42.83;;;;;;;;;;5014456;28;20030;-65
2022/01/01 07:56:21;;;;;;;55.93;43.00;;;;;;;;;;5015134;28;20041;-64
2022/01/01 07:58:47;;;;;;;58.17;43.97;;;;;;;;;;5013966;28;20038;-64
2022/01/01 08:01:13;;;;;;;53.57;42.17;;;;;;;;;;5015007;28;20117;-64
2022/01/01 08:03:39;;;;;;;53.37;42.33;;;;;;;;;;5005704;28;20032;-64
2022/01/01 08:06:05;;;;;;;53.40;43.47;;;;;;;;;;5014967;28;20026;-64
2022/01/01 08:08:31;;;;;;;63.17;46.17;;;;;;;;;;5013621;28;20085;-64
2022/01/01 08:10:58;;;;;;;56.10;43.20;;;;;;;;;;5014936;28;20101;-64
2022/01/01 08:13:25;;;;;;;59.13;45.27;;;;;;;;;;5018884;28;20036;-64
2022/01/01 08:15:52;;;;;;;54.90;43.90;;;;;;;;;;5014862;28;20021;-64
2022/01/01 08:18:18;;;;;;;54.80;44.23;;;;;;;;;;4995038;28;20368;-64
2022/01/01 08:20:44;;;;;;;54.33;43.67;;;;;;;;;;5014725;28;20557;-64
2022/01/01 08:23:10;;;;;;;54.87;43.10;;;;;;;;;;5021099;28;20441;-64
2022/01/01 08:25:36;;;;;;;54.00;43.33;;;;;;;;;;5014962;28;20022;-64
2022/01/01 08:28:02;;;;;;;55.23;43.07;;;;;;;;;;5013535;28;20065;-64
2022/01/01 08:30:29;;;;;;;57.37;43.33;;;;;;;;;;5014799;28;20049;-64
2022/01/01 08:33:01;;;;;;;59.10;44.30;;;;;;;;;;5013841;28;20376;-64
2022/01/01 08:35:27;;;;;;;55.30;44.33;;;;;;;;;;5019791;28;20021;-64
2022/01/01 08:37:53;;;;;;;58.77;45.23;;;;;;;;;;5023869;28;20032;-64
2022/01/01 08:40:19;;;;;;;67.93;51.37;;;;;;;;;;5014073;28;20116;-64
2022/01/01 08:42:45;;;;;;;70.60;53.50;;;;;;;;;;5019414;28;20037;-64
2022/01/01 08:45:11;;;;;;;72.93;55.43;;;;;;;;;;5012798;28;20046;-64
2022/01/01 08:47:37;;;;;;;70.50;52.83;;;;;;;;;;5012772;28;20387;-64
2022/01/01 08:50:04;;;;;;;70.93;54.07;;;;;;;;;;5011843;28;20063;-64
2022/01/01 08:52:37;;;;;;;65.57;51.10;;;;;;;;;;5020187;28;20104;-64
2022/01/01 08:55:03;;;;;;;75.37;55.60;;;;;;;;;;5005810;28;20083;-64
2022/01/01 08:57:31;;;;;;;75.90;55.47;;;;;;;;;;5013976;28;20165;-64
2022/01/01 08:59:58;;;;;;;69.70;53.63;;;;;;;;;;5012971;28;20029;-65
2022/01/01 09:02:24;;;;;;;79.40;59.57;;;;;;;;;;5013952;28;20022;-64
2022/01/01 09:04:50;;;;;;;84.03;61.43;;;;;;;;;;5012389;28;20452;-64
2022/01/01 09:07:17;;;;;;;85.43;62.27;;;;;;;;;;4980386;28;20030;-64
2022/01/01 09:09:43;;;;;;;87.63;65.23;;;;;;;;;;5009519;28;20045;-64
2022/01/01 09:12:09;;;;;;;82.10;63.20;;;;;;;;;;5012860;28;20025;-64
2022/01/01 09:14:35;;;;;;;88.60;66.07;;;;;;;;;;5014004;28;20040;-64
2022/01/01 09:17:02;;;;;;;90.60;66.63;;;;;;;;;;5013239;28;20034;-64
2022/01/01 09:19:28;;;;;;;91.37;65.93;;;;;;;;;;5012923;28;20041;-65
2022/01/01 09:21:54;;;;;;;85.90;64.63;;;;;;;;;;5015867;28;20160;-65
2022/01/01 09:24:20;;;;;;;95.53;70.70;;;;;;;;;;5016390;28;20029;-65
2022/01/01 09:26:47;;;;;;;94.47;70.60;;;;;;;;;;5013557;28;20022;-65
2022/01/01 09:29:13;;;;;;;92.83;67.27;;;;;;;;;;5012674;28;20045;-65
2022/01/01 09:31:40;;;;;;;85.47;63.57;;;;;;;;;;5013283;28;20030;-65
2022/01/01 09:34:06;;;;;;;86.07;65.03;;;;;;;;;;5012983;28;20542;-65
2022/01/01 09:36:34;;;;;;;86.73;65.03;;;;;;;;;;5012789;28;20447;-65
2022/01/01 09:39:00;;;;;;;85.07;65.20;;;;;;;;;;5020137;28;20033;-65
2022/01/01 09:41:26;;;;;;;90.70;66.30;;;;;;;;;;5023779;28;20478;-65
2022/01/01 09:43:55;;;;;;;84.13;62.87;;;;;;;;;;5003029;28;20037;-65
2022/01/01 09:46:22;;;;;;;86.33;64.53;;;;;;;;;;5031033;28;20037;-65
2022/01/01 09:48:51;;;;;;;88.90;64.83;;;;;;;;;;5017000;28;20038;-65
2022/01/01 09:51:17;;;;;;;87.57;64.17;;;;;;;;;;5012182;28;20376;-65
2022/01/01 09:53:43;;;;;;;85.53;63.67;;;;;;;;;;5009241;28;20530;-65
2022/01/01 09:56:09;;;;;;;86.47;62.50;;;;;;;;;;5013208;28;20018;-65
2022/01/01 09:58:37;;;;;;;87.43;63.33;;;;;;;;;;5014844;28;20033;-65
2022/01/01 10:01:03;;;;;;;81.80;59.50;;;;;;;;;;5030870;28;20104;-65
2022/01/01 10:03:29;;;;;;;78.57;60.27;;;;;;;;;;5024993;28;20030;-65
2022/01/01 10:06:01;;;;;;;78.80;59.53;;;;;;;;;;5013495;28;20480;-64
2022/01/01 10:08:27;;;;;;;75.33;56.53;;;;;;;;;;5015651;28;20088;-64
2022/01/01 10:10:54;;;;;;;71.80;56.90;;;;;;;;;;5015712;28;20549;-64
2022/01/01 10:13:25;;;;;;;78.90;59.10;;;;;;;;;;5015845;28;20034;-64
2022/01/01 10:15:53;;;;;;;78.73;58.53;;;;;;;;;;5017335;28;20026;-64
2022/01/01 10:18:23;;;;;;;79.10;59.17;;;;;;;;;;5016194;28;20030;-65
2022/01/01 10:30:00;;;;;;;80.33;60.10;;;;;;;;;;5008426;28;20045;-65
2022/01/01 10:32:26;;;;;;;81.70;59.87;;;;;;;;;;5016446;28;20022;-64
2022/01/01 10:34:52;;;;;;;83.63;62.17;;;;;;;;;;4999128;28;20030;-65
2022/01/01 10:37:18;;;;;;;81.10;60.73;;;;;;;;;;5015623;28;20026;-65
2022/01/01 10:39:54;;;;;;;86.27;61.90;;;;;;;;;;5015700;28;20084;-65
2022/01/01 10:42:40;;;;;;;85.57;62.60;;;;;;;;;;5013107;28;20026;-65
2022/01/01 10:45:06;;;;;;;86.70;61.37;;;;;;;;;;4999927;28;20451;-65
2022/01/01 10:47:33;;;;;;;87.00;63.37;;;;;;;;;;5002541;28;20022;-65
2022/01/01 10:53:05;;;;;;;84.50;62.23;;;;;;;;;;5015263;28;20033;-65
2022/01/01 10:55:31;;;;;;;86.97;61.13;;;;;;;;;;5009595;28;20037;-65
2022/01/01 10:58:02;;;;;;;85.10;63.97;;;;;;;;;;5013565;28;20030;-65
2022/01/01 11:00:28;;;;;;;95.37;66.50;;;;;;;;;;5029511;28;20056;-65
2022/01/01 11:02:56;;;;;;;88.80;64.77;;;;;;;;;;5021560;28;20030;-65
2022/01/01 11:05:34;;;;;;;81.40;62.20;;;;;;;;;;5017309;28;20022;-65
2022/01/01 11:08:02;;;;;;;87.70;65.57;;;;;;;;;;5006041;28;20049;-64
2022/01/01 11:10:28;;;;;;;89.17;64.23;;;;;;;;;;5015167;28;20468;-64
2022/01/01 11:12:55;;;;;;;88.13;63.20;;;;;;;;;;4997544;28;20050;-64
2022/01/01 11:15:22;;;;;;;86.97;63.23;;;;;;;;;;5023617;28;20029;-64
2022/01/01 11:17:48;;;;;;;85.33;63.17;;;;;;;;;;5025814;28;20034;-64
2022/01/01 11:20:15;;;;;;;88.03;63.37;;;;;;;;;;5015166;28;20026;-64
2022/01/01 11:23:00;;;;;;;86.87;64.17;;;;;;;;;;5014611;28;20037;-64
2022/01/01 11:25:26;;;;;;;86.85;61.42;;;;;;;;;;5004191;28;20495;-64
2022/01/01 11:27:53;;;;;;;85.03;60.17;;;;;;;;;;5015688;28;20041;-64
2022/01/01 11:30:19;;;;;;;89.53;63.73;;;;;;;;;;5015514;28;20037;-64
2022/01/01 11:32:45;;;;;;;84.50;60.30;;;;;;;;;;5015170;28;20061;-64
2022/01/01 11:35:16;;;;;;;85.43;61.37;;;;;;;;;;5015020;28;20500;-64
2022/01/01 11:40:57;;;;;;;89.03;61.17;;;;;;;;;;5001445;28;20045;-64
2022/01/01 11:43:33;;;;;;;86.23;60.27;;;;;;;;;;5000262;28;20022;-64
2022/01/01 11:45:59;;;;;;;85.13;59.63;;;;;;;;;;5022377;28;20022;-65
2022/01/01 11:48:32;;;;;;;85.37;60.47;;;;;;;;;;5014513;28;20395;-65
2022/01/01 11:51:18;;;;;;;81.87;58.27;;;;;;;;;;5014001;28;20018;-64
2022/01/01 11:54:02;;;;;;;86.67;59.50;;;;;;;;;;5004759;28;20083;-65
2022/01/01 11:56:29;;;;;;;78.70;56.33;;;;;;;;;;5002869;28;20511;-64
2022/01/01 11:58:55;;;;;;;81.87;58.00;;;;;;;;;;4996626;28;20040;-65
2022/01/01 12:01:27;;;;;;;82.10;58.80;;;;;;;;;;5014436;28;20030;-65
2022/01/01 12:03:54;;;;;;;85.83;59.10;;;;;;;;;;5014491;28;20033;-65
2022/01/01 12:06:21;;;;;;;83.03;57.63;;;;;;;;;;5019471;28;20471;-64
2022/01/01 12:08:48;;;;;;;79.53;56.70;;;;;;;;;;5007240;28;20057;-65
2022/01/01 12:11:28;;;;;;;81.43;57.87;;;;;;;;;;4997421;28;20029;-65
2022/01/01 12:13:58;;;;;;;83.20;58.43;;;;;;;;;;5008743;28;20068;-65
2022/01/01 12:16:25;;;;;;;86.50;58.53;;;;;;;;;;5013765;28;20033;-65
2022/01/01 12:19:00;;;;;;;75.83;55.30;;;;;;;;;;5014312;28;20273;-64
2022/01/01 12:21:27;;;;;;;82.83;58.90;;;;;;;;;;4977554;28;20034;-64
2022/01/01 12:23:58;;;;;;;83.93;58.40;;;;;;;;;;4999151;28;20018;-64
2022/01/01 12:26:33;;;;;;;82.70;57.43;;;;;;;;;;5021854;28;20483;-64
2022/01/01 12:28:59;;;;;;;;;;;;;;;;;;5008609;28;20038;-64
2022/01/01 12:31:25;;;;;;;84.13;55.87;;;;;;;;;;4994388;28;19959;-65
2022/01/01 12:33:54;;;;;;;78.80;57.10;;;;;;;;;;5012598;28;20492;-65
2022/01/01 12:42:31;;;;;;;84.97;56.77;;;;;;;;;;5007606;28;20109;-65
2022/01/01 12:45:03;;;;;;;83.07;58.17;;;;;;;;;;5013256;28;20026;-65
2022/01/01 12:47:29;;;;;;;81.30;57.80;;;;;;;;;;5014743;28;20399;-65
2022/01/01 12:50:01;;;;;;;73.53;53.87;;;;;;;;;;5016463;28;20583;-65
2022/01/01 12:52:27;;;;;;;78.93;54.87;;;;;;;;;;5012253;28;20671;-65
2022/01/01 12:54:57;;;;;;;75.30;56.03;;;;;;;;;;5018514;28;20038;-64
2022/01/01 12:57:23;;;;;;;79.20;56.07;;;;;;;;;;5015507;28;20026;-64
2022/01/01 12:59:49;;;;;;;77.73;54.93;;;;;;;;;;4985781;28;20447;-64
2022/01/01 13:02:16;;;;;;;76.17;55.83;;;;;;;;;;5033413;28;20029;-64
2022/01/01 13:04:42;;;;;;;83.67;58.17;;;;;;;;;;5020320;28;20034;-64
2022/01/01 13:07:08;;;;;;;73.90;54.67;;;;;;;;;;5028098;28;20431;-64
2022/01/01 13:09:34;;;;;;;80.20;57.43;;;;;;;;;;5024876;28;20112;-64
2022/01/01 13:12:07;;;;;;;82.67;59.00;;;;;;;;;;4977941;28;20034;-64
2022/01/01 13:14:34;;;;;;;80.17;56.73;;;;;;;;;;5004437;28;20096;-64
2022/01/01 13:17:04;;;;;;;80.50;57.03;;;;;;;;;;5013925;28;20037;-65
2022/01/01 13:19:34;;;;;;;79.53;55.97;;;;;;;;;;4988878;28;20037;-64
2022/01/01 13:22:00;;;;;;;80.67;58.13;;;;;;;;;;4994631;28;20034;-64
2022/01/01 13:24:26;;;;;;;79.10;54.77;;;;;;;;;;5012715;28;20029;-65
2022/01/01 13:26:54;;;;;;;79.47;56.37;;;;;;;;;;4996017;28;20121;-65
2022/01/01 13:29:20;;;;;;;83.60;58.73;;;;;;;;;;5012420;28;20069;-65
2022/01/01 13:31:47;;;;;;;78.20;55.70;;;;;;;;;;4996087;28;20030;-65
2022/01/01 13:34:13;;;;;;;79.93;56.57;;;;;;;;;;5015553;28;20034;-65
2022/01/01 13:36:46;;;;;;;76.70;55.60;;;;;;;;;;5013678;28;20080;-65
2022/01/01 13:39:13;;;;;;;76.67;56.13;;;;;;;;;;5011615;28;20088;-65
2022/01/01 13:41:40;;;;;;;76.43;54.60;;;;;;;;;;5013270;28;20030;-65
2022/01/01 13:44:42;;;;;;;78.57;56.33;;;;;;;;;;4993912;28;20042;-65
2022/01/01 13:47:09;;;;;;;78.80;55.83;;;;;;;;;;5003006;28;20065;-65
2022/01/01 13:49:39;;;;;;;77.53;53.83;;;;;;;;;;5012429;28;20509;-65
2022/01/01 13:52:05;;;;;;;74.40;55.00;;;;;;;;;;5013383;28;20513;-65
2022/01/01 13:54:34;;;;;;;75.27;54.57;;;;;;;;;;5011466;28;20030;-65
2022/01/01 13:57:05;;;;;;;75.60;53.93;;;;;;;;;;5013343;28;20472;-65
2022/01/01 13:59:31;;;;;;;73.53;53.40;;;;;;;;;;5012064;28;20136;-65
2022/01/01 14:01:58;;;;;;;80.73;56.33;;;;;;;;;;5013213;28;20022;-65
2022/01/01 14:04:24;;;;;;;73.10;54.47;;;;;;;;;;4994716;28;20068;-66
2022/01/01 14:07:06;;;;;;;78.53;54.67;;;;;;;;;;5013234;28;20101;-65
2022/01/01 14:09:32;;;;;;;75.43;52.53;;;;;;;;;;5009252;28;20411;-65
2022/01/01 14:11:59;;;;;;;71.53;52.40;;;;;;;;;;5012943;28;20057;-64
2022/01/01 14:14:29;;;;;;;77.40;57.03;;;;;;;;;;5010834;28;20033;-64
2022/01/01 14:16:55;;;;;;;76.90;53.90;;;;;;;;;;4993716;28;20038;-64
2022/01/01 14:19:23;;;;;;;74.20;53.67;;;;;;;;;;5008854;28;20033;-64
2022/01/01 14:21:50;;;;;;;71.73;52.37;;;;;;;;;;5012963;28;20022;-64
2022/01/01 14:24:18;;;;;;;70.40;51.90;;;;;;;;;;5011210;28;20034;-65
2022/01/01 14:27:07;;;;;;;72.43;53.00;;;;;;;;;;5012862;28;20034;-64
2022/01/01 14:29:33;;;;;;;70.77;53.23;;;;;;;;;;5011232;28;20042;-65
2022/01/01 14:31:59;;;;;;;72.97;52.87;;;;;;;;;;5012327;28;20125;-64
2022/01/01 14:34:25;;;;;;;70.93;52.67;;;;;;;;;;4999195;28;20598;-64
2022/01/01 14:36:52;;;;;;;72.00;53.47;;;;;;;;;;4998630;28;20099;-65
2022/01/01 14:39:19;;;;;;;70.77;52.83;;;;;;;;;;5012216;28;20034;-65
2022/01/01 14:41:45;;;;;;;72.93;53.03;;;;;;;;;;5013471;28;20026;-64
2022/01/01 14:44:11;;;;;;;72.90;53.83;;;;;;;;;;5010795;28;20030;-65